Time;durP1;ratioP1;P1;durP2;ratioP2;P2;SDS_P1;SDS_P2;PMS_P1;PMS_P2;Temp;Humidity;BMP_temperature;BMP_pressure;BME280_temperature;BME280_humidity;BME280_pressure;Samples;Min_cycle;Max_cycle;Signal;HPM_P1;HPM_P2
2022/06/12 00:00:10;;;;;;;15.63;6.97;;;18.60;99.90;;;;;;4981581;28;20522;-61
2022/06/12 00:02:36;;;;;;;23.27;8.25;;;18.60;99.90;;;;;;4981523;28;20018;-61
2022/06/12 00:05:02;;;;;;;25.67;9.55;;;18.40;99.90;;;;;;4980743;28;20080;-61
2022/06/12 00:07:28;;;;;;;31.67;10.25;;;18.40;99.90;;;;;;4977557;28;20014;-61
2022/06/12 00:09:54;;;;;;;30.13;9.65;;;18.20;99.90;;;;;;4978294;28;20041;-61
2022/06/12 00:12:20;;;;;;;24.95;9.00;;;18.10;99.90;;;;;;4981945;28;20030;-61
2022/06/12 00:14:45;;;;;;;18.88;8.88;;;18.10;99.90;;;;;;4981299;28;20053;-61
2022/06/12 00:17:11;;;;;;;27.52;9.32;;;18.00;99.90;;;;;;4981431;28;20113;-61
2022/06/12 00:19:40;;;;;;;28.38;10.40;;;18.10;99.90;;;;;;4977119;28;20033;-60
2022/06/12 00:22:06;;;;;;;25.23;9.07;;;18.00;99.90;;;;;;4976938;28;20113;-61
2022/06/12 00:24:33;;;;;;;29.08;10.52;;;18.00;99.90;;;;;;4981387;28;20442;-61
2022/06/12 00:26:59;;;;;;;35.50;10.23;;;18.10;99.90;;;;;;4981353;28;20387;-61
2022/06/12 00:29:29;;;;;;;30.88;10.32;;;18.00;99.90;;;;;;4981491;28;20128;-61
2022/06/12 00:32:02;;;;;;;31.00;10.50;;;18.10;99.90;;;;;;4980156;28;20447;-61
2022/06/12 00:34:32;;;;;;;30.75;10.45;;;18.10;99.90;;;;;;4976170;28;20038;-61
2022/06/12 00:36:58;;;;;;;30.15;10.02;;;18.10;99.90;;;;;;4977453;28;20065;-61
2022/06/12 00:39:25;;;;;;;27.92;9.90;;;18.10;99.90;;;;;;4980944;28;20105;-61
2022/06/12 00:41:54;;;;;;;31.67;10.25;;;18.20;99.90;;;;;;4981523;28;20031;-61
2022/06/12 00:44:25;;;;;;;32.53;10.45;;;18.10;99.90;;;;;;4981067;28;20019;-60
2022/06/12 00:46:54;;;;;;;41.20;11.32;;;18.00;99.90;;;;;;4978996;28;20033;-61
2022/06/12 00:49:39;;;;;;;30.20;10.15;;;17.80;99.90;;;;;;4976000;28;20023;-61
2022/06/12 00:52:17;;;;;;;33.55;10.90;;;17.70;99.90;;;;;;4989152;28;20037;-61
2022/06/12 00:54:49;;;;;;;29.42;9.52;;;17.60;99.90;;;;;;4977532;28;20039;-61
2022/06/12 00:57:16;;;;;;;32.85;10.30;;;17.80;99.90;;;;;;4980859;28;20031;-61
2022/06/12 00:59:52;;;;;;;30.48;10.07;;;17.70;99.90;;;;;;4987272;28;20030;-61
2022/06/12 01:02:22;;;;;;;31.80;10.18;;;17.50;99.90;;;;;;4980816;28;20415;-61
2022/06/12 01:07:39;;;;;;;34.47;10.75;;;17.20;99.90;;;;;;4976868;28;20057;-61
2022/06/12 01:10:10;;;;;;;28.80;9.60;;;17.20;99.90;;;;;;4988730;28;20489;-61
2022/06/12 01:12:43;;;;;;;29.85;9.93;;;17.40;99.90;;;;;;4987225;28;20505;-61
2022/06/12 01:15:16;;;;;;;30.23;9.52;;;17.40;99.90;;;;;;4987097;28;20158;-61
2022/06/12 01:17:43;;;;;;;21.45;8.63;;;17.40;99.90;;;;;;4987092;28;20058;-60
2022/06/12 01:20:15;;;;;;;25.85;9.38;;;17.60;99.90;;;;;;4986289;28;20439;-61
2022/06/12 01:23:01;;;;;;;27.20;9.52;;;17.80;99.90;;;;;;4991931;28;20030;-61
2022/06/12 01:26:00;;;;;;;27.83;9.32;;;17.80;99.90;;;;;;4976756;28;20019;-61
2022/06/12 01:28:52;;;;;;;24.15;9.15;;;17.70;99.90;;;;;;4960686;28;20117;-61
2022/06/12 01:31:18;;;;;;;26.58;9.00;;;17.70;99.90;;;;;;4989909;28;20452;-61
2022/06/12 01:33:50;;;;;;;21.17;8.23;;;17.80;99.90;;;;;;4987843;28;20062;-61
2022/06/12 01:36:23;;;;;;;22.33;7.97;;;17.70;99.90;;;;;;4987063;28;20117;-61
2022/06/12 01:39:02;;;;;;;20.80;7.32;;;17.70;99.90;;;;;;4987433;28;20125;-61
2022/06/12 01:41:38;;;;;;;27.33;8.77;;;17.70;99.90;;;;;;4986978;28;20038;-60
2022/06/12 01:44:22;;;;;;;24.13;7.82;;;17.70;99.90;;;;;;4987642;28;20029;-61
2022/06/12 01:46:52;;;;;;;24.70;8.10;;;17.70;99.90;;;;;;4975950;28;20033;-60
2022/06/12 01:49:32;;;;;;;25.63;7.47;;;17.50;99.90;;;;;;4990672;28;20036;-61
2022/06/12 01:52:13;;;;;;;29.67;8.30;;;17.70;99.90;;;;;;4991206;28;20494;-60
2022/06/12 01:54:42;;;;;;;26.70;8.45;;;17.60;99.90;;;;;;4990549;28;20065;-60
2022/06/12 01:57:32;;;;;;;26.65;8.48;;;17.40;99.90;;;;;;4991035;28;20045;-60
2022/06/12 02:00:21;;;;;;;30.17;8.95;;;17.20;99.90;;;;;;4988093;28;20039;-60
2022/06/12 02:02:49;;;;;;;28.88;8.65;;;17.10;99.90;;;;;;4983210;28;20473;-61
2022/06/12 02:05:34;;;;;;;32.15;8.73;;;17.20;99.90;;;;;;4984247;28;20403;-61
2022/06/12 02:08:05;;;;;;;32.83;9.05;;;17.10;99.90;;;;;;4983225;28;20169;-61
2022/06/12 02:10:40;;;;;;;30.75;8.90;;;17.00;99.90;;;;;;4979223;28;20072;-60
2022/06/12 02:13:12;;;;;;;30.45;9.13;;;17.00;99.90;;;;;;4991580;28;20552;-61
2022/06/12 02:16:03;;;;;;;30.52;9.07;;;16.90;99.90;;;;;;4989669;28;20112;-61
2022/06/12 02:18:34;;;;;;;30.83;9.02;;;16.90;99.90;;;;;;4990289;28;20035;-60
2022/06/12 02:21:03;;;;;;;38.13;9.88;;;16.90;99.90;;;;;;4989980;28;20088;-62
2022/06/12 02:23:36;;;;;;;33.47;9.18;;;16.80;99.90;;;;;;4990545;28;20553;-61
2022/06/12 02:26:04;;;;;;;36.65;9.55;;;16.70;99.90;;;;;;4990875;28;20035;-61
2022/06/12 02:28:41;;;;;;;31.15;9.27;;;16.80;99.90;;;;;;4994204;28;20049;-60
2022/06/12 02:31:13;;;;;;;28.80;8.70;;;16.80;99.90;;;;;;4990989;28;20530;-61
2022/06/12 02:33:43;;;;;;;33.35;9.38;;;16.80;99.90;;;;;;4990181;28;20506;-60
2022/06/12 02:36:18;;;;;;;35.67;9.38;;;16.60;99.90;;;;;;4989906;28;20168;-60
2022/06/12 02:38:57;;;;;;;32.50;9.20;;;16.50;99.90;;;;;;4989304;28;20037;-60
2022/06/12 02:41:31;;;;;;;31.05;8.98;;;16.60;99.90;;;;;;4983254;28;20041;-61
2022/06/12 02:44:01;;;;;;;30.67;9.32;;;16.50;99.90;;;;;;4982118;28;20027;-60
2022/06/12 02:46:45;;;;;;;31.63;8.75;;;16.50;99.90;;;;;;4978200;28;20030;-61
2022/06/12 02:49:12;;;;;;;27.65;9.13;;;16.60;99.90;;;;;;4992208;28;20092;-61
2022/06/12 02:51:40;;;;;;;30.73;9.18;;;16.50;99.90;;;;;;4990086;28;20030;-60
2022/06/12 02:54:06;;;;;;;25.65;8.27;;;16.40;99.90;;;;;;4989273;28;20027;-61
2022/06/12 02:56:48;;;;;;;26.92;8.98;;;16.50;99.90;;;;;;4989239;28;20080;-60
2022/06/12 02:59:20;;;;;;;31.88;8.98;;;16.40;99.90;;;;;;4989574;28;20634;-60
2022/06/12 03:02:05;;;;;;;31.15;9.13;;;16.30;99.90;;;;;;4991736;28;20038;-60
2022/06/12 03:05:09;;;;;;;32.15;8.93;;;16.20;99.90;;;;;;4978459;28;20161;-61
2022/06/12 03:07:35;;;;;;;31.13;9.88;;;16.20;99.90;;;;;;4900509;29;20119;-61
2022/06/12 03:10:06;;;;;;;26.60;8.40;;;16.20;99.90;;;;;;4915235;29;20123;-61
2022/06/12 03:12:32;;;;;;;27.60;8.57;;;16.40;99.90;;;;;;4915033;29;20509;-61
2022/06/12 03:15:00;;;;;;;32.58;9.50;;;16.40;99.90;;;;;;4914703;29;20028;-60
2022/06/12 03:17:26;;;;;;;26.38;8.77;;;16.20;99.90;;;;;;4914342;29;20048;-61
2022/06/12 03:19:55;;;;;;;21.90;7.90;;;16.10;99.90;;;;;;4914470;29;20562;-60
2022/06/12 03:22:34;;;;;;;27.90;8.38;;;16.10;99.90;;;;;;4914345;29;20083;-60
2022/06/12 03:25:44;;;;;;;23.77;8.25;;;16.00;99.90;;;;;;4911014;29;20031;-60
2022/06/12 03:28:25;;;;;;;28.20;8.73;;;16.00;99.90;;;;;;4908742;29;20084;-61
2022/06/12 03:31:03;;;;;;;29.45;8.43;;;16.20;99.90;;;;;;4913907;29;20036;-61
2022/06/12 03:33:42;;;;;;;26.48;8.52;;;16.10;99.90;;;;;;4914300;29;20136;-60
2022/06/12 03:36:08;;;;;;;30.05;8.52;;;16.10;99.90;;;;;;4914427;29;20464;-60
2022/06/12 03:38:36;;;;;;;36.45;9.88;;;16.10;99.90;;;;;;4913961;29;20032;-60
2022/06/12 03:41:27;;;;;;;46.58;10.02;;;16.20;99.90;;;;;;4913704;29;20048;-60
2022/06/12 03:43:59;;;;;;;38.13;9.55;;;16.30;99.90;;;;;;4964924;28;20074;-61
2022/06/12 03:46:44;;;;;;;32.95;9.27;;;16.40;99.90;;;;;;4992686;28;20034;-61
2022/06/12 03:49:25;;;;;;;28.23;8.93;;;16.50;99.90;;;;;;4990545;28;20029;-60
2022/06/12 03:52:14;;;;;;;34.58;9.30;;;16.60;99.90;;;;;;4978290;28;20109;-61
2022/06/12 03:54:53;;;;;;;33.38;9.50;;;16.50;99.90;;;;;;4988453;28;20066;-61
2022/06/12 04:00:42;;;;;;;26.10;7.80;;;16.40;99.90;;;;;;4981667;28;20407;-61
2022/06/12 04:03:20;;;;;;;38.35;8.95;;;16.40;99.90;;;;;;4981687;28;20019;-60
2022/06/12 04:05:49;;;;;;;28.33;8.98;;;16.40;99.90;;;;;;4981467;28;20030;-60
2022/06/12 04:08:22;;;;;;;31.30;8.32;;;16.40;99.90;;;;;;4981395;28;20030;-61
2022/06/12 04:10:50;;;;;;;33.25;9.32;;;16.30;99.90;;;;;;4979578;28;20027;-60
2022/06/12 04:13:18;;;;;;;28.92;8.70;;;16.40;99.90;;;;;;4976263;28;20031;-61
2022/06/12 04:15:55;;;;;;;33.47;9.45;;;16.60;99.90;;;;;;4978322;28;20518;-60
2022/06/12 04:18:23;;;;;;;36.53;9.18;;;16.40;99.90;;;;;;4981241;28;20495;-61
2022/06/12 04:21:16;;;;;;;32.33;9.38;;;16.20;99.90;;;;;;4981670;28;20085;-60
2022/06/12 04:24:07;;;;;;;30.85;8.35;;;16.10;99.90;;;;;;4987935;28;20110;-61
2022/06/12 04:26:38;;;;;;;29.15;8.73;;;16.00;99.90;;;;;;4970111;28;20122;-60
2022/06/12 04:29:20;;;;;;;29.63;8.85;;;16.10;99.90;;;;;;4981128;28;20030;-60
2022/06/12 04:31:48;;;;;;;27.98;8.63;;;16.20;99.90;;;;;;4977341;28;20034;-60
2022/06/12 04:34:23;;;;;;;31.48;8.88;;;16.10;99.90;;;;;;4988617;28;20483;-61
2022/06/12 04:36:53;;;;;;;28.35;8.52;;;16.20;99.90;;;;;;4977450;28;20023;-61
2022/06/12 04:39:22;;;;;;;32.72;9.05;;;16.20;99.90;;;;;;4980898;28;20026;-61
2022/06/12 04:41:49;;;;;;;36.35;9.60;;;16.30;99.90;;;;;;4980921;28;20383;-61
2022/06/12 04:44:15;;;;;;;29.75;9.13;;;16.30;99.90;;;;;;4981159;28;20029;-62
2022/06/12 04:46:43;;;;;;;37.58;9.20;;;16.40;99.90;;;;;;4978027;28;20026;-61
2022/06/12 04:49:14;;;;;;;30.88;8.65;;;16.30;99.90;;;;;;4976478;28;20074;-61
2022/06/12 04:51:40;;;;;;;29.38;8.27;;;16.50;99.90;;;;;;4979822;28;20030;-61
2022/06/12 04:54:05;;;;;;;26.10;8.35;;;16.50;99.90;;;;;;4982280;28;20041;-61
2022/06/12 04:56:36;;;;;;;32.03;9.25;;;16.70;99.90;;;;;;4987719;28;20027;-60
2022/06/12 04:59:04;;;;;;;29.52;8.32;;;16.60;99.90;;;;;;4987974;28;20062;-61
2022/06/12 05:01:32;;;;;;;31.02;8.60;;;16.70;99.90;;;;;;4976272;28;20129;-61
2022/06/12 05:03:58;;;;;;;28.50;8.45;;;16.90;99.90;;;;;;4988623;28;20475;-60
2022/06/12 05:06:24;;;;;;;24.52;8.07;;;17.10;99.90;;;;;;4987680;28;20445;-61
2022/06/12 05:08:50;;;;;;;29.58;8.30;;;17.20;99.90;;;;;;4987321;28;20026;-61
2022/06/12 05:11:17;;;;;;;24.20;8.07;;;17.30;99.90;;;;;;4987095;28;20035;-61
2022/06/12 05:13:43;;;;;;;24.33;7.80;;;17.60;99.90;;;;;;4992386;28;20458;-61
2022/06/12 05:16:22;;;;;;;24.92;8.00;;;17.80;99.90;;;;;;4976197;28;20033;-61
2022/06/12 05:18:48;;;;;;;23.27;8.13;;;17.80;99.90;;;;;;4977249;28;20037;-61
2022/06/12 05:21:14;;;;;;;17.77;6.90;;;18.10;99.90;;;;;;4980849;28;20039;-61
2022/06/12 05:23:39;;;;;;;22.73;7.32;;;18.40;99.90;;;;;;4981150;28;20027;-61
2022/06/12 05:26:06;;;;;;;23.08;7.20;;;18.30;99.90;;;;;;4983904;28;20049;-61
2022/06/12 05:28:31;;;;;;;25.02;7.93;;;18.60;99.90;;;;;;4980175;28;20106;-61
2022/06/12 05:30:57;;;;;;;22.58;6.88;;;19.10;99.90;;;;;;4980724;28;20113;-61
2022/06/12 05:33:23;;;;;;;22.65;7.82;;;19.30;99.90;;;;;;4984524;28;20038;-61
2022/06/12 05:35:48;;;;;;;25.42;7.68;;;19.70;99.90;;;;;;4984303;28;20034;-61
2022/06/12 05:38:14;;;;;;;19.30;6.88;;;20.20;99.90;;;;;;4984817;28;20026;-61
2022/06/12 05:40:41;;;;;;;20.95;7.65;;;20.80;99.90;;;;;;4980560;28;20056;-61
2022/06/12 05:43:08;;;;;;;17.65;6.57;;;20.90;99.90;;;;;;4979757;28;20023;-61
2022/06/12 05:45:34;;;;;;;12.55;5.13;;;20.80;99.90;;;;;;4990536;28;20039;-61
2022/06/12 05:48:09;;;;;;;20.52;6.88;;;20.40;99.90;;;;;;4991035;28;20069;-61
2022/06/12 05:50:43;;;;;;;19.23;6.63;;;20.30;99.90;;;;;;4990373;28;20529;-60
2022/06/12 05:53:09;;;;;;;23.02;6.57;;;20.10;99.90;;;;;;4994257;28;20018;-62
2022/06/12 05:55:35;;;;;;;19.75;6.60;;;19.80;99.90;;;;;;4980472;28;20511;-61
2022/06/12 05:58:01;;;;;;;24.25;6.93;;;19.50;99.90;;;;;;4980119;28;20019;-61
2022/06/12 06:00:30;;;;;;;22.25;6.65;;;19.20;99.90;;;;;;4983876;28;20102;-61
2022/06/12 06:02:57;;;;;;;22.48;6.65;;;19.20;99.90;;;;;;4984082;28;20403;-61
2022/06/12 06:05:23;;;;;;;19.20;5.82;;;19.10;99.90;;;;;;4983670;28;20041;-61
2022/06/12 06:07:49;;;;;;;20.70;6.15;;;19.10;99.90;;;;;;4981994;28;20029;-61
2022/06/12 06:10:21;;;;;;;18.70;6.00;;;19.20;99.90;;;;;;4978188;28;20384;-61
2022/06/12 06:12:47;;;;;;;21.33;6.32;;;19.50;99.90;;;;;;4980206;28;20030;-61
2022/06/12 06:15:13;;;;;;;20.25;6.50;;;19.60;99.90;;;;;;4983569;28;20054;-61
2022/06/12 06:17:39;;;;;;;24.02;7.07;;;19.70;99.90;;;;;;4984412;28;20027;-61
2022/06/12 06:20:07;;;;;;;17.33;5.30;;;20.30;99.90;;;;;;4983447;28;20089;-61
2022/06/12 06:22:33;;;;;;;20.00;6.32;;;21.80;99.90;;;;;;4978941;28;20026;-61
2022/06/12 06:24:58;;;;;;;17.02;5.45;;;23.40;99.90;;;;;;4991323;28;20037;-61
2022/06/12 06:27:24;;;;;;;17.45;5.00;;;23.30;99.90;;;;;;4990032;28;20022;-61
2022/06/12 06:29:50;;;;;;;18.88;4.95;;;22.70;99.90;;;;;;4989705;28;20031;-61
2022/06/12 06:32:16;;;;;;;19.80;4.93;;;21.90;99.90;;;;;;4993158;28;20030;-61
2022/06/12 06:34:42;;;;;;;14.50;4.90;;;22.00;99.90;;;;;;4980190;28;20078;-62
2022/06/12 06:37:10;;;;;;;17.55;5.00;;;21.50;99.90;;;;;;4978155;28;20539;-61
2022/06/12 06:39:37;;;;;;;19.52;5.40;;;21.30;99.90;;;;;;4989760;28;20034;-62
2022/06/12 06:42:04;;;;;;;15.77;5.47;;;21.20;99.90;;;;;;4989583;28;20031;-61
2022/06/12 06:47:14;;;;;;;17.92;5.40;;;21.30;99.90;;;;;;4989813;28;20115;-61
2022/06/12 06:49:39;;;;;;;16.63;4.90;;;21.10;99.90;;;;;;4993268;28;20113;-61
2022/06/12 06:52:06;;;;;;;14.27;4.85;;;21.10;99.90;;;;;;4990411;28;20556;-61
2022/06/12 06:54:31;;;;;;;18.05;5.38;;;21.20;99.90;;;;;;4989732;28;20495;-61
2022/06/12 06:56:57;;;;;;;18.30;4.88;;;21.20;99.90;;;;;;4989396;28;20022;-61
2022/06/12 06:59:23;;;;;;;18.45;5.22;;;21.10;99.90;;;;;;4989227;28;20039;-61
2022/06/12 07:01:49;;;;;;;21.13;5.55;;;20.60;99.90;;;;;;4991728;28;20068;-61
2022/06/12 07:04:15;;;;;;;17.27;4.95;;;20.10;99.90;;;;;;4991751;28;20038;-61
2022/06/12 07:06:41;;;;;;;22.25;5.57;;;19.90;99.90;;;;;;4989694;28;20440;-61
2022/06/12 07:09:07;;;;;;;20.88;5.47;;;19.80;99.90;;;;;;4988862;28;20388;-61
2022/06/12 07:11:33;;;;;;;19.48;4.90;;;20.00;99.90;;;;;;4990185;28;20054;-61
2022/06/12 07:13:59;;;;;;;17.77;5.45;;;19.80;99.90;;;;;;4981743;28;20517;-61
2022/06/12 07:16:28;;;;;;;18.00;5.32;;;19.70;99.90;;;;;;4977658;28;20122;-61
2022/06/12 07:18:53;;;;;;;16.33;4.88;;;19.70;99.90;;;;;;4979606;28;20023;-61
2022/06/12 07:21:19;;;;;;;20.38;5.70;;;20.10;99.90;;;;;;4981970;28;20051;-61
2022/06/12 07:23:45;;;;;;;16.10;5.18;;;20.10;99.90;;;;;;4982341;28;20396;-61
2022/06/12 07:26:19;;;;;;;19.50;5.57;;;20.30;99.90;;;;;;4982465;28;20030;-61
2022/06/12 07:28:45;;;;;;;;;;;20.30;99.90;;;;;;4980212;28;20029;-61
2022/06/12 07:31:12;;;;;;;20.25;5.47;;;20.20;99.90;;;;;;4977637;28;19906;-62
2022/06/12 07:33:38;;;;;;;19.08;5.50;;;20.50;99.90;;;;;;4981290;28;20498;-61
2022/06/12 07:36:08;;;;;;;17.88;5.40;;;20.80;99.90;;;;;;4981714;28;20025;-61
2022/06/12 07:38:36;;;;;;;15.65;5.10;;;20.80;99.90;;;;;;4982026;28;20458;-61
2022/06/12 07:41:03;;;;;;;14.43;5.32;;;21.10;99.90;;;;;;4981347;28;20037;-61
2022/06/12 07:43:33;;;;;;;14.07;4.63;;;21.80;99.90;;;;;;4977716;28;20026;-61
2022/06/12 07:46:00;;;;;;;17.92;5.68;;;22.10;99.90;;;;;;4989819;28;20054;-60
2022/06/12 07:48:25;;;;;;;20.55;6.07;;;21.60;99.90;;;;;;4987701;28;20224;-61
2022/06/12 07:50:52;;;;;;;16.70;5.47;;;21.10;99.90;;;;;;4985267;28;20031;-61
2022/06/12 07:53:22;;;;;;;18.23;5.20;;;21.00;99.90;;;;;;4982283;28;20034;-61
2022/06/12 07:55:50;;;;;;;24.92;5.70;;;20.80;99.90;;;;;;4980363;28;20529;-60
2022/06/12 07:58:17;;;;;;;17.05;5.40;;;20.80;99.90;;;;;;4977234;28;20139;-60
2022/06/12 08:00:43;;;;;;;22.02;5.50;;;20.60;99.90;;;;;;4977918;28;20415;-60
2022/06/12 08:03:09;;;;;;;17.23;5.43;;;20.30;99.90;;;;;;4981690;28;20030;-61
2022/06/12 08:05:35;;;;;;;20.35;5.10;;;20.40;99.90;;;;;;4981499;28;20045;-60
2022/06/12 08:08:01;;;;;;;20.02;5.55;;;20.40;99.90;;;;;;4981282;28;20011;-61
2022/06/12 08:10:27;;;;;;;20.02;5.15;;;20.40;99.90;;;;;;4976926;28;20129;-60
2022/06/12 08:12:55;;;;;;;18.42;5.10;;;20.50;99.90;;;;;;4978604;28;20015;-61
2022/06/12 08:15:26;;;;;;;15.13;4.80;;;20.60;99.90;;;;;;4981315;28;20061;-60
2022/06/12 08:17:53;;;;;;;19.52;5.00;;;20.60;99.90;;;;;;4981754;28;20303;-61
2022/06/12 08:20:25;;;;;;;15.98;5.60;;;20.60;99.90;;;;;;4975730;28;20074;-61
2022/06/12 08:22:59;;;;;;;18.70;5.40;;;20.60;99.90;;;;;;4989864;28;20034;-61
2022/06/12 08:25:27;;;;;;;20.23;5.63;;;20.70;99.90;;;;;;4991442;28;20486;-61
2022/06/12 08:27:53;;;;;;;20.60;5.65;;;20.80;99.90;;;;;;4988775;28;20030;-60
2022/06/12 08:30:19;;;;;;;20.15;5.55;;;21.00;99.90;;;;;;4982207;28;20435;-61
2022/06/12 08:32:49;;;;;;;20.60;5.45;;;21.20;99.90;;;;;;4981153;28;20073;-61
2022/06/12 08:35:21;;;;;;;18.27;5.45;;;21.20;99.90;;;;;;4980793;28;20105;-61
2022/06/12 08:37:47;;;;;;;19.50;5.20;;;21.40;99.90;;;;;;4978700;28;20449;-61
2022/06/12 08:40:40;;;;;;;17.80;5.05;;;21.50;99.90;;;;;;4976377;28;20023;-61
2022/06/12 08:43:40;;;;;;;15.10;4.60;;;21.80;99.90;;;;;;4988734;28;20026;-61
2022/06/12 08:46:21;;;;;;;18.20;5.35;;;22.10;99.90;;;;;;4988972;28;20041;-61
2022/06/12 08:48:57;;;;;;;17.65;5.10;;;23.20;99.90;;;;;;4977000;28;20059;-61
2022/06/12 08:51:52;;;;;;;19.40;5.72;;;23.70;99.90;;;;;;4981196;28;20399;-60
2022/06/12 08:54:24;;;;;;;13.93;4.78;;;23.20;99.90;;;;;;4980809;28;20038;-61
2022/06/12 08:57:08;;;;;;;14.10;4.28;;;22.90;99.90;;;;;;4980881;28;20061;-61
2022/06/12 08:59:45;;;;;;;16.70;5.10;;;22.90;99.90;;;;;;4983580;28;20494;-62
2022/06/12 09:02:21;;;;;;;15.00;4.72;;;23.60;99.90;;;;;;4985189;28;20076;-61
2022/06/12 09:04:47;;;;;;;18.23;5.03;;;24.80;99.90;;;;;;4982468;28;20113;-61
2022/06/12 09:07:26;;;;;;;14.57;4.55;;;24.60;99.90;;;;;;4980484;28;20454;-61
2022/06/12 09:10:02;;;;;;;16.13;4.60;;;24.20;99.90;;;;;;4981242;28;20015;-61
2022/06/12 09:12:44;;;;;;;15.48;4.57;;;24.00;99.90;;;;;;4984529;28;20051;-61
2022/06/12 09:15:21;;;;;;;11.15;4.13;;;23.90;99.90;;;;;;4984625;28;20415;-61
2022/06/12 09:18:04;;;;;;;13.88;4.32;;;24.80;99.90;;;;;;4984243;28;20114;-61
2022/06/12 09:20:36;;;;;;;15.60;4.18;;;25.20;99.90;;;;;;4985027;28;20035;-61
2022/06/12 09:23:25;;;;;;;12.90;4.47;;;25.90;99.90;;;;;;4984011;28;20053;-61
2022/06/12 09:26:24;;;;;;;13.45;4.03;;;26.40;99.90;;;;;;4980503;28;20069;-61
2022/06/12 09:29:02;;;;;;;19.15;4.90;;;27.00;99.90;;;;;;4980096;28;20049;-62
2022/06/12 09:31:37;;;;;;;15.60;4.43;;;27.00;99.90;;;;;;4994671;28;20022;-62
2022/06/12 09:34:08;;;;;;;14.63;4.32;;;26.70;99.90;;;;;;4992393;28;20037;-61
2022/06/12 09:36:41;;;;;;;14.77;4.80;;;26.70;99.90;;;;;;4991446;28;20026;-61
2022/06/12 09:39:10;;;;;;;15.95;4.75;;;27.10;99.90;;;;;;4990807;28;20041;-61
2022/06/12 09:41:53;;;;;;;14.00;4.45;;;27.20;99.90;;;;;;4990569;28;20121;-61
2022/06/12 09:44:25;;;;;;;11.60;4.53;;;27.50;99.90;;;;;;4990701;28;20023;-62
2022/06/12 09:47:06;;;;;;;15.48;3.92;;;27.10;99.90;;;;;;4994999;28;20124;-61
2022/06/12 09:49:49;;;;;;;15.20;3.90;;;26.80;99.90;;;;;;4980009;28;20479;-62
2022/06/12 09:52:39;;;;;;;12.55;4.00;;;26.30;99.90;;;;;;4992894;28;20494;-62
2022/06/12 09:55:34;;;;;;;14.43;4.05;;;26.10;99.90;;;;;;4991543;28;20181;-62
2022/06/12 09:58:33;;;;;;;14.63;4.18;;;26.50;99.90;;;;;;4986547;28;20533;-61
2022/06/12 10:01:07;;;;;;;12.20;3.80;;;26.10;99.90;;;;;;4991392;28;20457;-61
2022/06/12 10:03:45;;;;;;;11.93;3.67;;;25.90;99.90;;;;;;4990683;28;20030;-62
2022/06/12 10:06:24;;;;;;;14.85;4.07;;;26.40;99.90;;;;;;4990274;28;20368;-61
2022/06/12 10:08:56;;;;;;;14.52;3.92;;;26.60;99.90;;;;;;4990246;28;20509;-62
2022/06/12 10:11:29;;;;;;;11.77;3.83;;;27.10;99.90;;;;;;4990061;28;20030;-62
2022/06/12 10:14:12;;;;;;;9.97;3.63;;;27.40;99.90;;;;;;4991549;28;20051;-62
2022/06/12 10:17:01;;;;;;;11.90;3.92;;;27.40;99.90;;;;;;4979639;28;20453;-62
2022/06/12 10:19:30;;;;;;;11.27;3.83;;;26.90;99.90;;;;;;4994080;28;20418;-62
2022/06/12 10:22:02;;;;;;;8.40;3.70;;;27.90;99.90;;;;;;4991302;28;20073;-62
2022/06/12 10:24:27;;;;;;;15.15;4.05;;;27.70;99.90;;;;;;4989986;28;20026;-62
2022/06/12 10:27:04;;;;;;;16.67;4.35;;;27.30;99.90;;;;;;4988025;28;20437;-62
2022/06/12 10:29:42;;;;;;;9.65;3.67;;;27.10;99.90;;;;;;4982890;28;20022;-62
2022/06/12 10:32:14;;;;;;;15.05;3.88;;;27.50;99.90;;;;;;4983487;28;20050;-62
2022/06/12 10:34:40;;;;;;;11.80;4.13;;;27.40;99.90;;;;;;4980465;28;20027;-62
2022/06/12 10:37:28;;;;;;;10.07;3.90;;;27.80;99.90;;;;;;4978883;28;20062;-62
2022/06/12 10:40:06;;;;;;;11.20;3.83;;;28.10;99.90;;;;;;4979538;28;20043;-62
2022/06/12 10:42:43;;;;;;;12.45;4.10;;;28.20;99.90;;;;;;4990335;28;20065;-62
2022/06/12 10:45:36;;;;;;;11.43;3.85;;;28.20;99.90;;;;;;4989791;28;20050;-62
2022/06/12 10:48:26;;;;;;;10.13;3.47;;;28.30;99.90;;;;;;4987533;28;20054;-62
2022/06/12 10:51:27;;;;;;;10.95;3.42;;;29.10;99.90;;;;;;4989420;28;20417;-62
2022/06/12 10:54:05;;;;;;;10.57;3.97;;;29.10;99.90;;;;;;4986375;28;20438;-62
2022/06/12 10:57:07;;;;;;;9.57;3.75;;;28.60;99.90;;;;;;4989825;28;20538;-62
2022/06/12 10:59:41;;;;;;;8.30;3.30;;;28.90;99.90;;;;;;4929243;29;20039;-62
2022/06/12 11:02:06;;;;;;;9.68;3.80;;;28.90;99.90;;;;;;4929340;29;20052;-63
2022/06/12 11:04:56;;;;;;;8.52;3.50;;;28.50;99.90;;;;;;4933734;29;20054;-62
2022/06/12 11:07:46;;;;;;;9.32;4.05;;;27.70;99.90;;;;;;4932781;29;20109;-62
2022/06/12 11:10:17;;;;;;;11.90;3.88;;;27.80;99.90;;;;;;4931113;29;20458;-62
2022/06/12 11:13:07;;;;;;;8.98;3.67;;;27.60;99.90;;;;;;4927777;29;20028;-62
2022/06/12 11:15:45;;;;;;;10.88;3.72;;;27.00;99.90;;;;;;4929493;29;20365;-62
2022/06/12 11:18:28;;;;;;;9.35;3.38;;;27.20;99.90;;;;;;4928913;29;20044;-62
2022/06/12 11:21:04;;;;;;;7.65;3.10;;;27.30;99.90;;;;;;4928771;29;20127;-62
2022/06/12 11:23:57;;;;;;;12.73;3.83;;;27.90;99.90;;;;;;4928286;29;20535;-62
2022/06/12 11:26:29;;;;;;;9.18;3.45;;;28.20;99.90;;;;;;4928879;29;20043;-62
2022/06/12 11:29:12;;;;;;;9.15;3.10;;;28.90;99.90;;;;;;4930249;28;20123;-62
2022/06/12 11:32:16;;;;;;;5.68;2.85;;;29.00;99.90;;;;;;4933527;29;20024;-62
2022/06/12 11:34:57;;;;;;;;;;;28.80;99.90;;;;;;4920107;29;20119;-63
2022/06/12 11:37:53;;;;;;;8.65;3.35;;;29.00;99.90;;;;;;4972835;28;19907;-62
2022/06/12 11:40:42;;;;;;;8.88;3.60;;;29.20;99.90;;;;;;4991033;28;20065;-63
2022/06/12 11:43:29;;;;;;;9.85;3.58;;;29.80;99.90;;;;;;4990115;28;20026;-62
2022/06/12 11:46:13;;;;;;;6.13;2.83;;;30.00;99.90;;;;;;4979290;28;20034;-62
2022/06/12 11:49:16;;;;;;;8.02;3.38;;;29.40;99.90;;;;;;4989221;28;20089;-62
2022/06/12 11:52:09;;;;;;;9.88;3.65;;;29.50;99.90;;;;;;4988778;28;20161;-62
2022/06/12 11:54:44;;;;;;;10.88;3.33;;;29.60;99.90;;;;;;4981105;28;20428;-62
2022/06/12 11:57:19;;;;;;;10.45;3.67;;;29.80;99.90;;;;;;4981844;28;20488;-63
2022/06/12 12:00:12;;;;;;;8.35;2.95;;;30.00;99.90;;;;;;4981525;28;20443;-62
2022/06/12 12:03:08;;;;;;;10.30;3.20;;;29.70;99.90;;;;;;4981695;28;20030;-62
2022/06/12 12:05:51;;;;;;;8.45;3.50;;;29.60;99.90;;;;;;4981783;28;20508;-62
2022/06/12 12:08:23;;;;;;;10.57;3.30;;;28.40;99.90;;;;;;4981252;28;20566;-63
2022/06/12 12:11:18;;;;;;;7.30;3.10;;;29.20;99.90;;;;;;4978950;28;20515;-63
2022/06/12 12:13:51;;;;;;;9.93;3.53;;;29.70;99.90;;;;;;4917794;29;20439;-62
2022/06/12 12:16:43;;;;;;;7.13;3.50;;;30.00;99.90;;;;;;4930771;29;20035;-62
2022/06/12 12:19:22;;;;;;;10.48;3.97;;;29.90;99.90;;;;;;4914593;29;20032;-61
2022/06/12 12:22:27;;;;;;;9.27;3.80;;;28.30;99.90;;;;;;4931576;29;20140;-61
2022/06/12 12:25:03;;;;;;;12.07;3.72;;;27.80;99.90;;;;;;4881962;29;20518;-62
2022/06/12 12:27:37;;;;;;;8.20;4.22;;;27.50;99.90;;;;;;4895512;29;20084;-62
2022/06/12 12:30:14;;;;;;;9.13;3.80;;;28.00;99.90;;;;;;4895617;29;20132;-62
2022/06/12 12:32:39;;;;;;;8.60;3.80;;;28.10;99.90;;;;;;4896095;29;20533;-62
2022/06/12 12:35:06;;;;;;;8.93;3.90;;;28.30;99.90;;;;;;4895413;29;20048;-63
2022/06/12 12:43:17;;;;;;;8.00;3.85;;;28.20;99.90;;;;;;4896055;29;20087;-64
2022/06/12 12:45:44;;;;;;;10.63;3.78;;;28.20;99.90;;;;;;4894596;29;20036;-64
2022/06/12 12:48:15;;;;;;;8.10;3.42;;;28.10;99.90;;;;;;4895236;29;20045;-64
2022/06/12 12:50:51;;;;;;;10.00;3.70;;;27.90;99.90;;;;;;4913153;29;20126;-64
2022/06/12 12:53:43;;;;;;;7.75;3.70;;;27.80;99.90;;;;;;4929098;29;20087;-64
2022/06/12 12:56:14;;;;;;;11.38;3.72;;;27.60;99.90;;;;;;4925399;29;20054;-63
2022/06/12 12:59:00;;;;;;;8.60;3.63;;;27.70;99.90;;;;;;4932638;29;20032;-62
2022/06/12 13:01:39;;;;;;;7.95;3.67;;;27.40;99.90;;;;;;4947296;28;20585;-63
2022/06/12 13:04:22;;;;;;;9.55;3.63;;;27.10;99.90;;;;;;4988835;28;20109;-63
2022/06/12 13:07:12;;;;;;;7.82;3.72;;;27.50;99.90;;;;;;4977848;28;20034;-63
2022/06/12 13:09:44;;;;;;;9.45;3.63;;;27.90;99.90;;;;;;4987154;28;20042;-63
2022/06/12 13:12:39;;;;;;;10.43;3.75;;;28.30;99.90;;;;;;4987350;28;20034;-64
2022/06/12 13:15:29;;;;;;;7.38;3.50;;;28.50;99.90;;;;;;4984154;28;20042;-63
2022/06/12 13:18:18;;;;;;;6.45;3.78;;;28.50;99.90;;;;;;4987440;28;20117;-64
2022/06/12 13:20:59;;;;;;;7.55;3.38;;;29.20;99.90;;;;;;4986589;28;20096;-64
2022/06/12 13:23:46;;;;;;;5.65;3.00;;;29.50;99.90;;;;;;4986813;28;20089;-64
2022/06/12 13:26:16;;;;;;;6.70;3.05;;;29.70;99.90;;;;;;4987526;28;20023;-63
2022/06/12 13:28:42;;;;;;;8.55;3.10;;;29.50;99.90;;;;;;4990739;28;20018;-64